sensor_id;sensor_type;location;lat;lon;timestamp;temperature;humidity
12426;DHT22;6277;49.824;9.562;2023-06-24T00:00:04;17.80;63.20
12426;DHT22;6277;49.824;9.562;2023-06-24T00:02:35;17.80;63.40
12426;DHT22;6277;49.824;9.562;2023-06-24T00:05:04;17.70;63.40
12426;DHT22;6277;49.824;9.562;2023-06-24T00:07:31;17.70;63.40
12426;DHT22;6277;49.824;9.562;2023-06-24T00:09:57;17.60;63.50
12426;DHT22;6277;49.824;9.562;2023-06-24T00:12:23;17.60;63.60
12426;DHT22;6277;49.824;9.562;2023-06-24T00:14:50;17.60;63.70
12426;DHT22;6277;49.824;9.562;2023-06-24T00:17:16;17.50;63.90
12426;DHT22;6277;49.824;9.562;2023-06-24T00:19:42;17.50;63.80
12426;DHT22;6277;49.824;9.562;2023-06-24T00:22:09;17.40;63.90
12426;DHT22;6277;49.824;9.562;2023-06-24T00:24:34;17.40;64.00
12426;DHT22;6277;49.824;9.562;2023-06-24T00:27:00;17.40;64.10
12426;DHT22;6277;49.824;9.562;2023-06-24T00:29:25;17.30;64.10
12426;DHT22;6277;49.824;9.562;2023-06-24T00:31:51;17.30;64.20
12426;DHT22;6277;49.824;9.562;2023-06-24T00:34:17;17.20;64.40
12426;DHT22;6277;49.824;9.562;2023-06-24T00:36:45;17.20;64.40
12426;DHT22;6277;49.824;9.562;2023-06-24T00:39:12;17.20;64.40
12426;DHT22;6277;49.824;9.562;2023-06-24T00:41:37;17.10;64.40
12426;DHT22;6277;49.824;9.562;2023-06-24T00:44:03;17.10;64.50
12426;DHT22;6277;49.824;9.562;2023-06-24T00:46:29;17.10;64.70
12426;DHT22;6277;49.824;9.562;2023-06-24T00:48:57;17.10;64.80
12426;DHT22;6277;49.824;9.562;2023-06-24T00:51:23;17.00;65.00
12426;DHT22;6277;49.824;9.562;2023-06-24T00:53:55;17.00;65.10
12426;DHT22;6277;49.824;9.562;2023-06-24T00:56:22;17.00;65.10
12426;DHT22;6277;49.824;9.562;2023-06-24T00:58:50;17.00;65.40
12426;DHT22;6277;49.824;9.562;2023-06-24T01:01:17;17.00;65.30
12426;DHT22;6277;49.824;9.562;2023-06-24T01:03:43;16.90;65.40
12426;DHT22;6277;49.824;9.562;2023-06-24T01:06:09;16.90;65.50
12426;DHT22;6277;49.824;9.562;2023-06-24T01:08:35;16.90;65.60
12426;DHT22;6277;49.824;9.562;2023-06-24T01:11:01;16.90;65.60
12426;DHT22;6277;49.824;9.562;2023-06-24T01:13:27;16.80;65.70
12426;DHT22;6277;49.824;9.562;2023-06-24T01:15:52;16.80;65.80
12426;DHT22;6277;49.824;9.562;2023-06-24T01:18:23;16.80;65.80
12426;DHT22;6277;49.824;9.562;2023-06-24T01:20:52;16.80;66.10
12426;DHT22;6277;49.824;9.562;2023-06-24T01:23:45;16.70;65.80
12426;DHT22;6277;49.824;9.562;2023-06-24T01:26:22;16.70;66.50
12426;DHT22;6277;49.824;9.562;2023-06-24T01:31:46;16.60;66.50
12426;DHT22;6277;49.824;9.562;2023-06-24T01:34:32;16.50;66.20
12426;DHT22;6277;49.824;9.562;2023-06-24T01:39:41;16.40;66.40
12426;DHT22;6277;49.824;9.562;2023-06-24T01:42:10;16.30;66.60
12426;DHT22;6277;49.824;9.562;2023-06-24T01:44:37;16.30;66.70
12426;DHT22;6277;49.824;9.562;2023-06-24T01:47:05;16.20;66.70
12426;DHT22;6277;49.824;9.562;2023-06-24T01:49:32;16.20;66.80
12426;DHT22;6277;49.824;9.562;2023-06-24T01:51:59;16.20;66.70
12426;DHT22;6277;49.824;9.562;2023-06-24T01:54:28;16.20;67.00
12426;DHT22;6277;49.824;9.562;2023-06-24T01:56:57;16.20;67.60
12426;DHT22;6277;49.824;9.562;2023-06-24T01:59:25;16.20;67.00
12426;DHT22;6277;49.824;9.562;2023-06-24T02:01:53;16.10;66.70
12426;DHT22;6277;49.824;9.562;2023-06-24T02:04:20;16.10;66.70
12426;DHT22;6277;49.824;9.562;2023-06-24T02:06:46;16.10;66.80
12426;DHT22;6277;49.824;9.562;2023-06-24T02:09:15;16.10;66.80
12426;DHT22;6277;49.824;9.562;2023-06-24T02:11:43;16.10;67.10
12426;DHT22;6277;49.824;9.562;2023-06-24T02:14:10;16.10;67.00
12426;DHT22;6277;49.824;9.562;2023-06-24T02:16:36;16.10;67.00
12426;DHT22;6277;49.824;9.562;2023-06-24T02:19:03;16.00;67.00
12426;DHT22;6277;49.824;9.562;2023-06-24T02:21:30;16.00;67.10
12426;DHT22;6277;49.824;9.562;2023-06-24T02:23:56;16.00;67.20
12426;DHT22;6277;49.824;9.562;2023-06-24T02:26:22;16.00;67.30
12426;DHT22;6277;49.824;9.562;2023-06-24T02:28:49;16.00;67.30
12426;DHT22;6277;49.824;9.562;2023-06-24T02:31:16;16.00;67.40
12426;DHT22;6277;49.824;9.562;2023-06-24T02:33:42;16.00;67.60
12426;DHT22;6277;49.824;9.562;2023-06-24T02:36:08;16.00;67.60
12426;DHT22;6277;49.824;9.562;2023-06-24T02:38:33;16.00;67.70
12426;DHT22;6277;49.824;9.562;2023-06-24T02:40:59;16.00;67.60
12426;DHT22;6277;49.824;9.562;2023-06-24T02:43:26;15.90;67.60
12426;DHT22;6277;49.824;9.562;2023-06-24T02:45:52;15.90;67.60
12426;DHT22;6277;49.824;9.562;2023-06-24T02:48:19;15.90;67.70
12426;DHT22;6277;49.824;9.562;2023-06-24T02:50:46;15.90;67.70
12426;DHT22;6277;49.824;9.562;2023-06-24T02:53:12;15.90;67.70
12426;DHT22;6277;49.824;9.562;2023-06-24T02:55:40;15.90;67.70
12426;DHT22;6277;49.824;9.562;2023-06-24T02:58:06;15.80;67.80
12426;DHT22;6277;49.824;9.562;2023-06-24T03:00:37;15.80;67.60
12426;DHT22;6277;49.824;9.562;2023-06-24T03:03:04;15.70;67.70
12426;DHT22;6277;49.824;9.562;2023-06-24T03:05:30;15.70;67.70
12426;DHT22;6277;49.824;9.562;2023-06-24T03:07:57;15.70;67.70
12426;DHT22;6277;49.824;9.562;2023-06-24T03:10:26;15.60;67.80
12426;DHT22;6277;49.824;9.562;2023-06-24T03:12:52;15.60;68.20
12426;DHT22;6277;49.824;9.562;2023-06-24T03:15:18;15.60;68.00
12426;DHT22;6277;49.824;9.562;2023-06-24T03:17:43;15.50;67.90
12426;DHT22;6277;49.824;9.562;2023-06-24T03:20:09;15.50;68.00
12426;DHT22;6277;49.824;9.562;2023-06-24T03:22:36;15.50;68.00
12426;DHT22;6277;49.824;9.562;2023-06-24T03:25:01;15.50;68.00
12426;DHT22;6277;49.824;9.562;2023-06-24T03:27:27;15.50;68.10
12426;DHT22;6277;49.824;9.562;2023-06-24T03:29:52;15.40;68.10
12426;DHT22;6277;49.824;9.562;2023-06-24T03:32:18;15.40;68.20
12426;DHT22;6277;49.824;9.562;2023-06-24T03:34:43;15.40;68.30
12426;DHT22;6277;49.824;9.562;2023-06-24T03:37:09;15.40;68.30
12426;DHT22;6277;49.824;9.562;2023-06-24T03:39:35;15.40;68.50
12426;DHT22;6277;49.824;9.562;2023-06-24T03:42:00;15.40;68.50
12426;DHT22;6277;49.824;9.562;2023-06-24T03:44:26;15.30;68.50
12426;DHT22;6277;49.824;9.562;2023-06-24T03:46:51;15.40;68.70
12426;DHT22;6277;49.824;9.562;2023-06-24T03:49:17;15.40;68.90
12426;DHT22;6277;49.824;9.562;2023-06-24T03:51:43;15.50;69.10
12426;DHT22;6277;49.824;9.562;2023-06-24T03:54:09;15.50;69.20
12426;DHT22;6277;49.824;9.562;2023-06-24T03:56:35;15.60;69.50
12426;DHT22;6277;49.824;9.562;2023-06-24T03:59:00;15.60;69.50
12426;DHT22;6277;49.824;9.562;2023-06-24T04:01:26;15.60;69.60
12426;DHT22;6277;49.824;9.562;2023-06-24T04:03:52;15.70;69.70
12426;DHT22;6277;49.824;9.562;2023-06-24T04:06:18;15.70;69.80
12426;DHT22;6277;49.824;9.562;2023-06-24T04:08:43;15.80;69.80
12426;DHT22;6277;49.824;9.562;2023-06-24T04:11:09;15.80;69.80
12426;DHT22;6277;49.824;9.562;2023-06-24T04:13:35;15.90;69.80
12426;DHT22;6277;49.824;9.562;2023-06-24T04:16:01;15.90;69.80
12426;DHT22;6277;49.824;9.562;2023-06-24T04:18:27;15.90;69.70
12426;DHT22;6277;49.824;9.562;2023-06-24T04:20:53;15.90;69.80
12426;DHT22;6277;49.824;9.562;2023-06-24T04:23:18;16.00;69.90
12426;DHT22;6277;49.824;9.562;2023-06-24T04:25:44;16.00;70.00
12426;DHT22;6277;49.824;9.562;2023-06-24T04:28:10;16.00;70.00
12426;DHT22;6277;49.824;9.562;2023-06-24T04:30:35;16.10;70.10
12426;DHT22;6277;49.824;9.562;2023-06-24T04:33:01;16.10;70.20
12426;DHT22;6277;49.824;9.562;2023-06-24T04:35:27;16.20;70.40
12426;DHT22;6277;49.824;9.562;2023-06-24T04:37:53;16.20;70.40
12426;DHT22;6277;49.824;9.562;2023-06-24T04:40:18;16.30;70.40
12426;DHT22;6277;49.824;9.562;2023-06-24T04:42:45;16.30;70.40
12426;DHT22;6277;49.824;9.562;2023-06-24T04:45:11;16.40;70.50
12426;DHT22;6277;49.824;9.562;2023-06-24T04:47:36;16.40;70.40
12426;DHT22;6277;49.824;9.562;2023-06-24T04:50:02;16.50;70.40
12426;DHT22;6277;49.824;9.562;2023-06-24T04:52:28;16.60;70.40
12426;DHT22;6277;49.824;9.562;2023-06-24T04:54:54;16.60;70.30
12426;DHT22;6277;49.824;9.562;2023-06-24T04:57:25;16.60;70.30
12426;DHT22;6277;49.824;9.562;2023-06-24T04:59:51;16.70;70.60
12426;DHT22;6277;49.824;9.562;2023-06-24T05:02:16;16.80;70.40
12426;DHT22;6277;49.824;9.562;2023-06-24T05:04:42;16.80;70.40
12426;DHT22;6277;49.824;9.562;2023-06-24T05:07:07;16.90;70.50
12426;DHT22;6277;49.824;9.562;2023-06-24T05:09:33;16.90;70.60
12426;DHT22;6277;49.824;9.562;2023-06-24T05:11:58;16.90;70.50
12426;DHT22;6277;49.824;9.562;2023-06-24T05:14:24;17.00;70.50
12426;DHT22;6277;49.824;9.562;2023-06-24T05:16:49;17.00;70.50
12426;DHT22;6277;49.824;9.562;2023-06-24T05:19:15;17.10;70.70
12426;DHT22;6277;49.824;9.562;2023-06-24T05:21:41;17.10;70.70
12426;DHT22;6277;49.824;9.562;2023-06-24T05:24:07;17.20;70.90
12426;DHT22;6277;49.824;9.562;2023-06-24T05:26:32;17.30;71.10
12426;DHT22;6277;49.824;9.562;2023-06-24T05:28:58;17.30;71.20
12426;DHT22;6277;49.824;9.562;2023-06-24T05:31:23;17.40;71.30
12426;DHT22;6277;49.824;9.562;2023-06-24T05:33:49;17.50;71.40
12426;DHT22;6277;49.824;9.562;2023-06-24T05:36:14;17.60;71.30
12426;DHT22;6277;49.824;9.562;2023-06-24T05:38:40;17.80;71.30
12426;DHT22;6277;49.824;9.562;2023-06-24T05:41:05;17.80;71.10
12426;DHT22;6277;49.824;9.562;2023-06-24T05:43:31;17.90;71.00
12426;DHT22;6277;49.824;9.562;2023-06-24T05:45:56;18.00;70.80
12426;DHT22;6277;49.824;9.562;2023-06-24T05:48:22;18.00;70.60
12426;DHT22;6277;49.824;9.562;2023-06-24T05:50:47;18.10;70.60
12426;DHT22;6277;49.824;9.562;2023-06-24T05:53:13;18.10;70.60
12426;DHT22;6277;49.824;9.562;2023-06-24T05:55:38;18.10;70.40
12426;DHT22;6277;49.824;9.562;2023-06-24T05:58:04;18.10;70.40
12426;DHT22;6277;49.824;9.562;2023-06-24T06:00:29;18.20;70.50
12426;DHT22;6277;49.824;9.562;2023-06-24T06:02:55;18.10;70.40
12426;DHT22;6277;49.824;9.562;2023-06-24T06:05:20;18.20;70.50
12426;DHT22;6277;49.824;9.562;2023-06-24T06:07:46;18.20;70.50
12426;DHT22;6277;49.824;9.562;2023-06-24T06:10:12;18.30;70.70
12426;DHT22;6277;49.824;9.562;2023-06-24T06:12:40;18.30;70.80
12426;DHT22;6277;49.824;9.562;2023-06-24T06:15:06;18.40;70.90
12426;DHT22;6277;49.824;9.562;2023-06-24T06:17:32;18.40;71.00
12426;DHT22;6277;49.824;9.562;2023-06-24T06:19:57;18.50;71.10
12426;DHT22;6277;49.824;9.562;2023-06-24T06:22:23;18.50;71.30
12426;DHT22;6277;49.824;9.562;2023-06-24T06:24:48;18.70;71.50
12426;DHT22;6277;49.824;9.562;2023-06-24T06:27:14;18.70;71.60
12426;DHT22;6277;49.824;9.562;2023-06-24T06:29:40;18.80;71.60
12426;DHT22;6277;49.824;9.562;2023-06-24T06:32:06;18.90;71.70
12426;DHT22;6277;49.824;9.562;2023-06-24T06:34:31;19.00;71.80
12426;DHT22;6277;49.824;9.562;2023-06-24T06:36:57;19.10;71.90
12426;DHT22;6277;49.824;9.562;2023-06-24T06:39:22;19.20;71.90
12426;DHT22;6277;49.824;9.562;2023-06-24T06:41:48;19.20;71.90
12426;DHT22;6277;49.824;9.562;2023-06-24T06:44:13;19.30;71.90
12426;DHT22;6277;49.824;9.562;2023-06-24T06:46:39;19.40;71.90
12426;DHT22;6277;49.824;9.562;2023-06-24T06:49:04;19.50;71.90
12426;DHT22;6277;49.824;9.562;2023-06-24T06:51:30;19.60;71.90
12426;DHT22;6277;49.824;9.562;2023-06-24T06:53:55;19.70;71.90
12426;DHT22;6277;49.824;9.562;2023-06-24T06:56:24;19.80;71.90
12426;DHT22;6277;49.824;9.562;2023-06-24T06:58:51;19.90;72.00
12426;DHT22;6277;49.824;9.562;2023-06-24T07:01:17;20.00;71.90
12426;DHT22;6277;49.824;9.562;2023-06-24T07:03:43;20.00;71.90
12426;DHT22;6277;49.824;9.562;2023-06-24T07:06:09;20.20;71.90
12426;DHT22;6277;49.824;9.562;2023-06-24T07:08:34;20.30;71.80
12426;DHT22;6277;49.824;9.562;2023-06-24T07:11:03;20.40;71.80
12426;DHT22;6277;49.824;9.562;2023-06-24T07:13:29;20.40;71.70
12426;DHT22;6277;49.824;9.562;2023-06-24T07:15:54;20.50;71.60
12426;DHT22;6277;49.824;9.562;2023-06-24T07:18:20;20.60;71.50
12426;DHT22;6277;49.824;9.562;2023-06-24T07:20:46;20.70;71.50
12426;DHT22;6277;49.824;9.562;2023-06-24T07:23:11;20.80;71.40
12426;DHT22;6277;49.824;9.562;2023-06-24T07:25:37;20.90;71.30
12426;DHT22;6277;49.824;9.562;2023-06-24T07:28:02;21.00;71.40
12426;DHT22;6277;49.824;9.562;2023-06-24T07:30:28;21.00;71.30
12426;DHT22;6277;49.824;9.562;2023-06-24T07:32:54;21.20;71.30
12426;DHT22;6277;49.824;9.562;2023-06-24T07:35:19;21.30;71.30
12426;DHT22;6277;49.824;9.562;2023-06-24T07:37:45;21.30;71.10
12426;DHT22;6277;49.824;9.562;2023-06-24T07:40:11;21.40;70.90
12426;DHT22;6277;49.824;9.562;2023-06-24T07:42:36;21.50;70.70
12426;DHT22;6277;49.824;9.562;2023-06-24T07:45:02;21.60;70.70
12426;DHT22;6277;49.824;9.562;2023-06-24T07:47:28;21.70;70.70
12426;DHT22;6277;49.824;9.562;2023-06-24T07:49:53;21.80;71.20
12426;DHT22;6277;49.824;9.562;2023-06-24T07:52:19;21.90;70.30
12426;DHT22;6277;49.824;9.562;2023-06-24T07:54:44;22.00;70.00
12426;DHT22;6277;49.824;9.562;2023-06-24T07:57:10;22.10;69.80
12426;DHT22;6277;49.824;9.562;2023-06-24T07:59:35;22.20;69.30
12426;DHT22;6277;49.824;9.562;2023-06-24T08:02:01;22.30;69.10
12426;DHT22;6277;49.824;9.562;2023-06-24T08:04:26;22.30;69.00
12426;DHT22;6277;49.824;9.562;2023-06-24T08:06:52;22.40;68.80
12426;DHT22;6277;49.824;9.562;2023-06-24T08:09:17;22.50;68.60
12426;DHT22;6277;49.824;9.562;2023-06-24T08:11:43;22.60;68.30
12426;DHT22;6277;49.824;9.562;2023-06-24T08:14:09;22.70;68.10
12426;DHT22;6277;49.824;9.562;2023-06-24T08:16:34;22.80;67.90
12426;DHT22;6277;49.824;9.562;2023-06-24T08:19:00;22.80;67.70
12426;DHT22;6277;49.824;9.562;2023-06-24T08:21:25;22.90;67.50
12426;DHT22;6277;49.824;9.562;2023-06-24T08:23:51;23.00;67.40
12426;DHT22;6277;49.824;9.562;2023-06-24T08:26:19;23.10;67.00
12426;DHT22;6277;49.824;9.562;2023-06-24T08:28:47;23.10;66.60
12426;DHT22;6277;49.824;9.562;2023-06-24T08:31:13;23.20;66.60
12426;DHT22;6277;49.824;9.562;2023-06-24T08:33:39;23.30;66.50
12426;DHT22;6277;49.824;9.562;2023-06-24T08:36:04;23.40;66.00
12426;DHT22;6277;49.824;9.562;2023-06-24T08:38:30;23.50;65.50
12426;DHT22;6277;49.824;9.562;2023-06-24T08:40:56;23.60;65.30
12426;DHT22;6277;49.824;9.562;2023-06-24T08:43:21;23.60;65.00
12426;DHT22;6277;49.824;9.562;2023-06-24T08:45:47;23.70;64.90
12426;DHT22;6277;49.824;9.562;2023-06-24T08:48:13;23.80;64.70
12426;DHT22;6277;49.824;9.562;2023-06-24T08:50:49;23.90;64.20
12426;DHT22;6277;49.824;9.562;2023-06-24T08:53:16;24.00;62.80
12426;DHT22;6277;49.824;9.562;2023-06-24T08:55:44;24.10;63.40
12426;DHT22;6277;49.824;9.562;2023-06-24T08:58:10;24.20;63.00
12426;DHT22;6277;49.824;9.562;2023-06-24T09:00:36;24.20;62.60
12426;DHT22;6277;49.824;9.562;2023-06-24T09:03:02;24.30;62.30
12426;DHT22;6277;49.824;9.562;2023-06-24T09:05:27;24.40;62.20
12426;DHT22;6277;49.824;9.562;2023-06-24T09:07:53;24.50;61.80
12426;DHT22;6277;49.824;9.562;2023-06-24T09:10:33;24.60;61.40
12426;DHT22;6277;49.824;9.562;2023-06-24T09:13:05;24.70;60.10
12426;DHT22;6277;49.824;9.562;2023-06-24T09:15:32;24.80;60.30
12426;DHT22;6277;49.824;9.562;2023-06-24T09:17:58;25.00;60.80
12426;DHT22;6277;49.824;9.562;2023-06-24T09:20:29;25.00;60.70
12426;DHT22;6277;49.824;9.562;2023-06-24T09:23:03;25.10;60.30
12426;DHT22;6277;49.824;9.562;2023-06-24T09:25:29;25.20;59.40
12426;DHT22;6277;49.824;9.562;2023-06-24T09:27:58;25.40;60.40
12426;DHT22;6277;49.824;9.562;2023-06-24T09:30:25;25.40;59.70
12426;DHT22;6277;49.824;9.562;2023-06-24T09:32:51;25.50;59.70
12426;DHT22;6277;49.824;9.562;2023-06-24T09:35:25;25.60;59.40
12426;DHT22;6277;49.824;9.562;2023-06-24T09:37:52;25.70;58.50
12426;DHT22;6277;49.824;9.562;2023-06-24T09:40:18;25.80;59.00
12426;DHT22;6277;49.824;9.562;2023-06-24T09:42:51;26.00;58.90
12426;DHT22;6277;49.824;9.562;2023-06-24T09:45:28;26.00;58.20
12426;DHT22;6277;49.824;9.562;2023-06-24T09:47:55;26.20;58.20
12426;DHT22;6277;49.824;9.562;2023-06-24T09:50:21;26.30;58.70
12426;DHT22;6277;49.824;9.562;2023-06-24T09:52:48;26.40;58.20
12426;DHT22;6277;49.824;9.562;2023-06-24T09:55:15;26.50;58.00
12426;DHT22;6277;49.824;9.562;2023-06-24T09:57:46;26.60;58.00
12426;DHT22;6277;49.824;9.562;2023-06-24T10:00:13;26.70;58.30
12426;DHT22;6277;49.824;9.562;2023-06-24T10:02:40;26.80;57.40
12426;DHT22;6277;49.824;9.562;2023-06-24T10:05:06;26.90;57.50
12426;DHT22;6277;49.824;9.562;2023-06-24T10:07:34;27.00;57.60
12426;DHT22;6277;49.824;9.562;2023-06-24T10:10:02;27.10;57.20
12426;DHT22;6277;49.824;9.562;2023-06-24T10:12:28;27.20;57.00
12426;DHT22;6277;49.824;9.562;2023-06-24T10:14:54;27.30;56.90
12426;DHT22;6277;49.824;9.562;2023-06-24T10:17:20;27.40;56.70
12426;DHT22;6277;49.824;9.562;2023-06-24T10:19:45;27.50;56.70
12426;DHT22;6277;49.824;9.562;2023-06-24T10:22:11;27.60;56.80
12426;DHT22;6277;49.824;9.562;2023-06-24T10:24:40;27.70;56.20
12426;DHT22;6277;49.824;9.562;2023-06-24T10:27:15;27.90;55.50
12426;DHT22;6277;49.824;9.562;2023-06-24T10:29:48;28.00;55.40
12426;DHT22;6277;49.824;9.562;2023-06-24T10:32:14;28.10;54.80
12426;DHT22;6277;49.824;9.562;2023-06-24T10:34:41;28.20;55.10
12426;DHT22;6277;49.824;9.562;2023-06-24T10:44:50;28.60;53.50
12426;DHT22;6277;49.824;9.562;2023-06-24T10:47:16;28.70;54.00
12426;DHT22;6277;49.824;9.562;2023-06-24T10:49:42;28.70;53.60
12426;DHT22;6277;49.824;9.562;2023-06-24T10:52:09;28.80;53.70
12426;DHT22;6277;49.824;9.562;2023-06-24T10:54:36;28.80;53.30
12426;DHT22;6277;49.824;9.562;2023-06-24T10:57:03;28.90;53.20
12426;DHT22;6277;49.824;9.562;2023-06-24T10:59:34;28.90;53.10
12426;DHT22;6277;49.824;9.562;2023-06-24T11:02:00;29.00;52.60
12426;DHT22;6277;49.824;9.562;2023-06-24T11:04:25;29.20;53.10
12426;DHT22;6277;49.824;9.562;2023-06-24T11:07:01;29.30;53.30
12426;DHT22;6277;49.824;9.562;2023-06-24T11:09:26;29.40;52.40
12426;DHT22;6277;49.824;9.562;2023-06-24T11:11:52;29.60;52.70
12426;DHT22;6277;49.824;9.562;2023-06-24T11:14:19;29.80;52.80
12426;DHT22;6277;49.824;9.562;2023-06-24T11:16:45;29.90;52.00
12426;DHT22;6277;49.824;9.562;2023-06-24T11:19:11;30.10;51.90
12426;DHT22;6277;49.824;9.562;2023-06-24T11:21:36;30.20;51.30
12426;DHT22;6277;49.824;9.562;2023-06-24T11:24:03;30.30;51.00
12426;DHT22;6277;49.824;9.562;2023-06-24T11:26:28;30.30;50.60
12426;DHT22;6277;49.824;9.562;2023-06-24T11:28:54;30.40;50.60
12426;DHT22;6277;49.824;9.562;2023-06-24T11:31:25;30.50;50.30
12426;DHT22;6277;49.824;9.562;2023-06-24T11:33:51;30.60;49.10
12426;DHT22;6277;49.824;9.562;2023-06-24T11:36:18;30.60;49.60
12426;DHT22;6277;49.824;9.562;2023-06-24T11:38:46;30.60;49.10
12426;DHT22;6277;49.824;9.562;2023-06-24T11:41:12;30.60;49.10
12426;DHT22;6277;49.824;9.562;2023-06-24T11:43:37;30.70;49.00
12426;DHT22;6277;49.824;9.562;2023-06-24T11:46:08;30.70;49.20
12426;DHT22;6277;49.824;9.562;2023-06-24T11:48:39;30.80;48.80
12426;DHT22;6277;49.824;9.562;2023-06-24T11:51:12;30.90;48.00
12426;DHT22;6277;49.824;9.562;2023-06-24T11:53:43;30.90;47.60
12426;DHT22;6277;49.824;9.562;2023-06-24T11:56:09;30.90;48.00
12426;DHT22;6277;49.824;9.562;2023-06-24T11:58:35;30.90;47.60
12426;DHT22;6277;49.824;9.562;2023-06-24T12:01:01;30.90;47.50
12426;DHT22;6277;49.824;9.562;2023-06-24T12:03:30;30.90;47.30
12426;DHT22;6277;49.824;9.562;2023-06-24T12:05:58;30.90;46.70
12426;DHT22;6277;49.824;9.562;2023-06-24T12:08:23;30.90;46.90
12426;DHT22;6277;49.824;9.562;2023-06-24T12:10:49;31.00;47.30
12426;DHT22;6277;49.824;9.562;2023-06-24T12:13:14;31.00;47.60
12426;DHT22;6277;49.824;9.562;2023-06-24T12:15:40;31.20;47.70
12426;DHT22;6277;49.824;9.562;2023-06-24T12:18:06;31.30;47.20
12426;DHT22;6277;49.824;9.562;2023-06-24T12:20:33;31.50;47.20
12426;DHT22;6277;49.824;9.562;2023-06-24T12:22:59;31.60;46.80
12426;DHT22;6277;49.824;9.562;2023-06-24T12:25:25;31.80;46.30
12426;DHT22;6277;49.824;9.562;2023-06-24T12:27:51;31.90;46.10
12426;DHT22;6277;49.824;9.562;2023-06-24T12:30:16;31.90;45.70
12426;DHT22;6277;49.824;9.562;2023-06-24T12:32:42;32.00;45.70
12426;DHT22;6277;49.824;9.562;2023-06-24T12:35:09;32.10;45.70
12426;DHT22;6277;49.824;9.562;2023-06-24T12:37:36;32.20;45.40
12426;DHT22;6277;49.824;9.562;2023-06-24T12:40:02;32.20;45.20
12426;DHT22;6277;49.824;9.562;2023-06-24T12:42:28;32.30;45.20
12426;DHT22;6277;49.824;9.562;2023-06-24T12:44:54;32.40;45.00
12426;DHT22;6277;49.824;9.562;2023-06-24T12:47:20;32.50;44.70
12426;DHT22;6277;49.824;9.562;2023-06-24T12:49:46;32.60;44.40
12426;DHT22;6277;49.824;9.562;2023-06-24T12:52:13;32.60;45.20
12426;DHT22;6277;49.824;9.562;2023-06-24T12:54:39;32.70;44.40
12426;DHT22;6277;49.824;9.562;2023-06-24T12:57:05;32.80;44.00
12426;DHT22;6277;49.824;9.562;2023-06-24T12:59:30;32.90;43.70
12426;DHT22;6277;49.824;9.562;2023-06-24T13:01:56;32.80;43.70
12426;DHT22;6277;49.824;9.562;2023-06-24T13:04:21;32.80;43.00
12426;DHT22;6277;49.824;9.562;2023-06-24T13:06:50;32.80;42.60
12426;DHT22;6277;49.824;9.562;2023-06-24T13:09:16;32.70;42.30
12426;DHT22;6277;49.824;9.562;2023-06-24T13:11:41;32.60;42.30
12426;DHT22;6277;49.824;9.562;2023-06-24T13:14:07;32.60;42.40
12426;DHT22;6277;49.824;9.562;2023-06-24T13:16:35;32.60;42.50
12426;DHT22;6277;49.824;9.562;2023-06-24T13:19:01;32.60;42.90
12426;DHT22;6277;49.824;9.562;2023-06-24T13:21:26;32.60;43.00
12426;DHT22;6277;49.824;9.562;2023-06-24T13:23:52;32.70;42.40
12426;DHT22;6277;49.824;9.562;2023-06-24T13:26:18;32.70;42.40
12426;DHT22;6277;49.824;9.562;2023-06-24T13:28:43;32.80;42.40
12426;DHT22;6277;49.824;9.562;2023-06-24T13:31:09;32.80;42.20
12426;DHT22;6277;49.824;9.562;2023-06-24T13:33:35;32.80;42.10
12426;DHT22;6277;49.824;9.562;2023-06-24T13:36:00;32.80;42.00
12426;DHT22;6277;49.824;9.562;2023-06-24T13:38:28;32.70;42.00
12426;DHT22;6277;49.824;9.562;2023-06-24T13:40:53;32.70;41.60
12426;DHT22;6277;49.824;9.562;2023-06-24T13:43:19;32.60;41.20
12426;DHT22;6277;49.824;9.562;2023-06-24T13:45:44;32.60;41.30
12426;DHT22;6277;49.824;9.562;2023-06-24T13:48:10;32.60;41.10
12426;DHT22;6277;49.824;9.562;2023-06-24T13:50:35;32.60;40.90
12426;DHT22;6277;49.824;9.562;2023-06-24T13:53:01;32.60;41.10
12426;DHT22;6277;49.824;9.562;2023-06-24T13:55:26;32.60;41.00
12426;DHT22;6277;49.824;9.562;2023-06-24T13:57:52;32.60;40.90
12426;DHT22;6277;49.824;9.562;2023-06-24T14:00:19;32.60;40.70
12426;DHT22;6277;49.824;9.562;2023-06-24T14:02:45;32.70;40.20
12426;DHT22;6277;49.824;9.562;2023-06-24T14:05:11;32.60;40.00
12426;DHT22;6277;49.824;9.562;2023-06-24T14:07:36;32.50;39.90
12426;DHT22;6277;49.824;9.562;2023-06-24T14:10:02;32.50;40.00
12426;DHT22;6277;49.824;9.562;2023-06-24T14:12:27;32.40;39.80
12426;DHT22;6277;49.824;9.562;2023-06-24T14:14:53;32.40;39.80
12426;DHT22;6277;49.824;9.562;2023-06-24T14:17:19;32.40;40.00
12426;DHT22;6277;49.824;9.562;2023-06-24T14:19:44;32.40;39.70
12426;DHT22;6277;49.824;9.562;2023-06-24T14:22:11;32.50;39.90
12426;DHT22;6277;49.824;9.562;2023-06-24T14:24:37;32.60;40.20
12426;DHT22;6277;49.824;9.562;2023-06-24T14:27:04;32.70;40.20
12426;DHT22;6277;49.824;9.562;2023-06-24T14:29:30;32.90;40.10
12426;DHT22;6277;49.824;9.562;2023-06-24T14:31:56;33.00;39.60
12426;DHT22;6277;49.824;9.562;2023-06-24T14:34:21;33.20;39.60
12426;DHT22;6277;49.824;9.562;2023-06-24T14:36:47;33.30;39.20
12426;DHT22;6277;49.824;9.562;2023-06-24T14:39:15;33.40;39.10
12426;DHT22;6277;49.824;9.562;2023-06-24T14:41:44;33.50;38.90
12426;DHT22;6277;49.824;9.562;2023-06-24T14:44:10;33.70;39.30
12426;DHT22;6277;49.824;9.562;2023-06-24T14:46:35;34.00;39.40
12426;DHT22;6277;49.824;9.562;2023-06-24T14:49:01;34.30;39.40
12426;DHT22;6277;49.824;9.562;2023-06-24T14:51:27;34.70;39.10
12426;DHT22;6277;49.824;9.562;2023-06-24T14:53:53;35.00;38.80
12426;DHT22;6277;49.824;9.562;2023-06-24T14:56:19;35.40;38.20
12426;DHT22;6277;49.824;9.562;2023-06-24T14:58:44;35.70;38.10
12426;DHT22;6277;49.824;9.562;2023-06-24T15:01:10;36.00;37.80
12426;DHT22;6277;49.824;9.562;2023-06-24T15:03:35;36.30;37.50
12426;DHT22;6277;49.824;9.562;2023-06-24T15:06:01;36.50;37.10
12426;DHT22;6277;49.824;9.562;2023-06-24T15:08:26;36.70;37.00
12426;DHT22;6277;49.824;9.562;2023-06-24T15:10:52;37.00;36.10
12426;DHT22;6277;49.824;9.562;2023-06-24T15:13:18;37.20;35.70
12426;DHT22;6277;49.824;9.562;2023-06-24T15:15:44;37.30;34.40
12426;DHT22;6277;49.824;9.562;2023-06-24T15:18:09;37.20;33.90
12426;DHT22;6277;49.824;9.562;2023-06-24T15:20:35;37.00;33.60
12426;DHT22;6277;49.824;9.562;2023-06-24T15:23:00;36.80;33.60
12426;DHT22;6277;49.824;9.562;2023-06-24T15:25:26;36.70;33.70
12426;DHT22;6277;49.824;9.562;2023-06-24T15:27:52;36.70;33.70
12426;DHT22;6277;49.824;9.562;2023-06-24T15:30:18;36.70;33.70
12426;DHT22;6277;49.824;9.562;2023-06-24T15:32:44;36.70;33.70
12426;DHT22;6277;49.824;9.562;2023-06-24T15:35:11;36.80;34.10
12426;DHT22;6277;49.824;9.562;2023-06-24T15:37:37;37.00;34.10
12426;DHT22;6277;49.824;9.562;2023-06-24T15:40:02;37.30;34.30
12426;DHT22;6277;49.824;9.562;2023-06-24T15:42:28;37.60;33.90
12426;DHT22;6277;49.824;9.562;2023-06-24T15:44:53;37.90;33.80
12426;DHT22;6277;49.824;9.562;2023-06-24T15:47:19;38.20;33.50
12426;DHT22;6277;49.824;9.562;2023-06-24T15:49:44;38.50;33.50
12426;DHT22;6277;49.824;9.562;2023-06-24T15:52:10;38.80;33.30